createdAt,value
2019-04-07T00:01:42.174Z,0
2019-04-07T00:07:13.802Z,0
2019-04-07T00:12:45.188Z,0
2019-04-07T00:18:16.090Z,0
2019-04-07T00:23:47.833Z,0
2019-04-07T00:29:19.538Z,0
2019-04-07T00:34:50.148Z,0
2019-04-07T00:40:22.286Z,0
2019-04-07T00:45:53.220Z,0
2019-04-07T00:51:24.036Z,0
2019-04-07T00:56:55.628Z,0
2019-04-07T01:02:26.621Z,0
2019-04-07T01:07:58.394Z,0
2019-04-07T01:13:29.819Z,0
2019-04-07T01:19:00.446Z,0
2019-04-07T01:24:31.743Z,0
2019-04-07T01:30:03.082Z,0
2019-04-07T01:35:44.781Z,0
2019-04-07T01:41:06.187Z,0
2019-04-07T01:46:37.062Z,0
2019-04-07T01:52:08.344Z,0
2019-04-07T01:57:39.897Z,0
2019-04-07T02:03:10.921Z,0
2019-04-07T02:08:42.795Z,0
2019-04-07T02:14:13.743Z,0
2019-04-07T02:19:44.908Z,0
2019-04-07T02:25:16.179Z,0
2019-04-07T02:30:48.039Z,0
2019-04-07T02:36:25.605Z,0
2019-04-07T02:41:50.307Z,0
2019-04-07T02:47:22.516Z,0
2019-04-07T02:52:52.983Z,0
2019-04-07T02:58:25.285Z,0
2019-04-07T03:03:55.630Z,0
2019-04-07T03:09:28.085Z,0
2019-04-07T03:14:58.513Z,0
2019-04-07T03:20:29.693Z,0
2019-04-07T03:26:01.033Z,0
2019-04-07T03:31:32.850Z,0
2019-04-07T03:37:21.118Z,0
2019-04-07T03:42:35.801Z,0
2019-04-07T03:48:07.057Z,0
2019-04-07T03:53:37.823Z,0
2019-04-07T03:59:09.208Z,0
2019-04-07T04:04:41.415Z,0
2019-04-07T04:10:12.061Z,0
2019-04-07T04:15:43.538Z,0
2019-04-07T04:21:15.342Z,0
2019-04-07T04:26:45.976Z,0
2019-04-07T04:32:17.219Z,0
2019-04-07T04:37:51.740Z,0
2019-04-07T04:43:19.850Z,0
2019-04-07T04:48:51.350Z,0
2019-04-07T04:54:22.361Z,0
2019-04-07T04:59:54.003Z,0
2019-04-07T05:05:25.557Z,0
2019-04-07T05:10:57.595Z,10.7
2019-04-07T05:16:29.317Z,9.6
2019-04-07T05:22:01.408Z,11.9
2019-04-07T05:27:33.702Z,5.9
2019-04-07T05:33:06.310Z,4.8
2019-04-07T05:38:36.721Z,0
2019-04-07T05:44:08.013Z,0
2019-04-07T05:49:39.325Z,0
2019-04-07T05:55:10.884Z,0
2019-04-07T06:00:45.716Z,0
2019-04-07T06:06:13.552Z,0
2019-04-07T06:11:45.422Z,0
2019-04-07T06:17:16.283Z,0
2019-04-07T06:22:52.615Z,10.7
2019-04-07T06:28:20.705Z,8.4
2019-04-07T06:33:54.872Z,8.4
2019-04-07T06:39:24.492Z,5.9
2019-04-07T06:44:56.321Z,0
2019-04-07T06:50:27.925Z,0
2019-04-07T06:56:02.204Z,0
2019-04-07T07:01:30.652Z,0
2019-04-07T07:07:02.310Z,0
2019-04-07T07:12:38.670Z,5.9
2019-04-07T07:18:05.624Z,5.9
2019-04-07T07:23:37.618Z,8.4
2019-04-07T07:29:13.184Z,8.4
2019-04-07T07:34:43.296Z,9.6
2019-04-07T07:40:15.820Z,8.4
2019-04-07T07:45:48.071Z,7.2
2019-04-07T07:51:18.616Z,7.2
2019-04-07T07:56:52.245Z,10.7
2019-04-07T08:02:24.158Z,8.4
2019-04-07T08:07:56.847Z,9.6
2019-04-07T08:13:29.998Z,9.6
2019-04-07T08:19:02.843Z,10.7
2019-04-07T08:24:36.157Z,9.6
2019-04-07T08:30:11.712Z,8.4
2019-04-07T08:35:40.761Z,9.6
2019-04-07T08:41:15.407Z,10.7
2019-04-07T08:46:45.797Z,10.7
2019-04-07T08:52:18.579Z,8.4
2019-04-07T08:57:51.638Z,10.7
2019-04-07T09:03:24.194Z,9.6
2019-04-07T09:08:56.414Z,0
2019-04-07T09:14:28.555Z,0
2019-04-07T09:20:05.449Z,13.2
2019-04-07T09:25:35.763Z,13.2
2019-04-07T09:31:07.465Z,19.2
2019-04-07T09:36:40.716Z,14.4
2019-04-07T09:42:13.737Z,18
2019-04-07T09:47:47.110Z,15.6
2019-04-07T09:53:19.682Z,15.6
2019-04-07T09:58:52.211Z,18
2019-04-07T10:04:25.521Z,18
2019-04-07T10:10:05.926Z,16.8
2019-04-07T10:15:30.032Z,20.4
2019-04-07T10:21:03.208Z,18
2019-04-07T10:26:36.187Z,18
2019-04-07T10:32:08.904Z,16.8
2019-04-07T10:37:41.512Z,20.4
2019-04-07T10:43:13.778Z,19.2
2019-04-07T10:48:46.708Z,19.2
2019-04-07T10:54:19.862Z,19.2
2019-04-07T10:59:51.777Z,19.2
2019-04-07T11:05:24.517Z,18
2019-04-07T11:10:57.254Z,20.4
2019-04-07T11:16:31.181Z,19.2
2019-04-07T11:22:02.784Z,20.4
2019-04-07T11:27:35.461Z,16.8
2019-04-07T11:33:08.144Z,14.4
2019-04-07T11:38:40.973Z,19.2
2019-04-07T11:44:13.833Z,16.8
2019-04-07T11:49:46.557Z,21.5
2019-04-07T11:55:19.393Z,20.4
2019-04-07T12:00:52.637Z,15.6
2019-04-07T12:06:25.478Z,14.4
2019-04-07T12:11:58.200Z,18
2019-04-07T12:17:30.669Z,20.4
2019-04-07T12:23:03.947Z,20.4
2019-04-07T12:28:37.560Z,20.4
2019-04-07T12:34:12.364Z,18
2019-04-07T12:39:42.826Z,18
2019-04-07T12:45:15.731Z,16.8
2019-04-07T12:50:54.043Z,22.8
2019-04-07T12:56:31.460Z,18
2019-04-07T13:02:01.594Z,19.2
2019-04-07T13:07:32.501Z,18
2019-04-07T13:13:05.079Z,16.8
2019-04-07T13:18:39.191Z,18
2019-04-07T13:24:12.870Z,19.2
2019-04-07T13:29:44.419Z,11.9
2019-04-07T13:35:16.487Z,18
2019-04-07T13:40:50.005Z,18
2019-04-07T13:46:28.581Z,16.8
2019-04-07T13:57:29.475Z,18
2019-04-07T14:03:01.904Z,15.6
2019-04-07T14:08:35.059Z,14.4
2019-04-07T14:14:09.630Z,13.2
2019-04-07T14:19:41.243Z,16.8
2019-04-07T14:25:14.513Z,15.6
2019-04-07T14:30:48.864Z,14.4
2019-04-07T14:36:20.722Z,14.4
2019-04-07T14:42:02.504Z,13.2
2019-04-07T14:47:27.190Z,13.2
2019-04-07T14:53:00.742Z,13.2
2019-04-07T14:58:32.451Z,11.9
2019-04-07T15:04:05.129Z,14.4
2019-04-07T15:09:38.168Z,14.4
2019-04-07T15:15:11.808Z,10.7
2019-04-07T15:20:43.483Z,10.7
2019-04-07T15:26:16.911Z,9.6
2019-04-07T15:31:50.606Z,15.6
2019-04-07T15:37:23.823Z,11.9
2019-04-07T15:42:54.469Z,15.6
2019-04-07T15:48:27.319Z,15.6
2019-04-07T15:54:00.702Z,13.2
2019-04-07T15:59:33.053Z,15.6
2019-04-07T16:05:06.191Z,14.4
2019-04-07T16:10:39.079Z,18
2019-04-07T16:16:11.311Z,13.2
2019-04-07T16:21:44.039Z,14.4
2019-04-07T16:27:15.578Z,14.4
2019-04-07T16:32:48.372Z,13.2
2019-04-07T16:38:21.262Z,13.2
2019-04-07T16:43:53.502Z,14.4
2019-04-07T16:49:25.792Z,11.9
2019-04-07T16:54:58.581Z,13.2
2019-04-07T17:00:31.199Z,11.9
2019-04-07T17:06:03.485Z,14.4
2019-04-07T17:11:38.748Z,11.9
2019-04-07T17:17:08.428Z,10.7
2019-04-07T17:22:43.458Z,9.6
2019-04-07T17:28:14.105Z,8.4
2019-04-07T17:33:45.681Z,9.6
2019-04-07T17:39:16.753Z,7.2
2019-04-07T17:44:50.039Z,0
2019-04-07T17:50:20.085Z,0
2019-04-07T17:55:51.613Z,0
2019-04-07T18:01:24.758Z,0
2019-04-07T18:06:55.029Z,0
2019-04-07T18:12:26.992Z,0
2019-04-07T18:17:58.761Z,0
2019-04-07T18:23:29.993Z,0
2019-04-07T18:29:01.822Z,0
2019-04-07T18:34:33.593Z,0
2019-04-07T18:40:04.703Z,0
2019-04-07T18:45:36.324Z,0
2019-04-07T18:51:10.491Z,0
2019-04-07T18:56:40.436Z,0
2019-04-07T19:02:13.041Z,0
2019-04-07T19:07:45.815Z,0
2019-04-07T19:13:17.334Z,0
2019-04-07T19:18:45.309Z,0
2019-04-07T19:24:16.814Z,0
2019-04-07T19:29:49.879Z,0
2019-04-07T19:35:20.589Z,0
2019-04-07T19:40:51.435Z,0
2019-04-07T19:46:26.353Z,0
2019-04-07T19:51:54.786Z,0
2019-04-07T19:57:26.090Z,0
2019-04-07T20:02:57.589Z,0
2019-04-07T20:08:32.268Z,0
2019-04-07T20:14:00.784Z,0
2019-04-07T20:19:37.170Z,0
2019-04-07T20:25:08.594Z,0
2019-04-07T20:30:35.580Z,0
2019-04-07T20:36:06.720Z,0
2019-04-07T20:41:38.177Z,0
2019-04-07T20:47:09.637Z,0
2019-04-07T20:52:41.006Z,0
2019-04-07T20:58:18.592Z,0
2019-04-07T21:03:46.944Z,0
2019-04-07T21:09:15.387Z,0
2019-04-07T21:14:47.282Z,0
2019-04-07T21:20:18.226Z,0
2019-04-07T21:25:51.970Z,0
2019-04-07T21:31:21.427Z,0
2019-04-07T21:36:52.632Z,0
2019-04-07T21:42:24.276Z,0
2019-04-07T21:47:58.521Z,0
2019-04-07T21:53:29.408Z,0
2019-04-07T21:58:59.092Z,0
2019-04-07T22:04:30.103Z,0
2019-04-07T22:10:01.129Z,0
2019-04-07T22:15:42.767Z,0
2019-04-07T22:21:03.824Z,0
2019-04-07T22:26:35.242Z,0
2019-04-07T22:32:07.451Z,0
2019-04-07T22:37:38.085Z,0
2019-04-07T22:43:09.449Z,0
2019-04-07T22:48:41.542Z,0
2019-04-07T22:54:12.294Z,0
2019-04-07T22:59:43.640Z,0
2019-04-07T23:05:15.060Z,0
2019-04-07T23:10:46.465Z,0
2019-04-07T23:16:18.835Z,0
2019-04-07T23:21:49.255Z,0
2019-04-07T23:27:20.688Z,0
2019-04-07T23:32:52.150Z,0
2019-04-07T23:38:23.952Z,0
2019-04-07T23:43:54.943Z,0
2019-04-07T23:49:26.349Z,0
2019-04-07T23:54:58.696Z,0
